createdAt,value
2017-12-21T00:01:28.449Z,98.90
2017-12-21T00:03:56.488Z,98.90
2017-12-21T00:06:25.098Z,98.90
2017-12-21T00:08:52.735Z,98.80
2017-12-21T00:11:21.710Z,98.90
2017-12-21T00:13:50.013Z,98.90
2017-12-21T00:16:17.564Z,98.90
2017-12-21T00:18:45.093Z,98.90
2017-12-21T00:21:13.407Z,99.00
2017-12-21T00:23:40.933Z,99.00
2017-12-21T00:26:09.249Z,99.00
2017-12-21T00:28:36.773Z,98.90
2017-12-21T00:31:05.102Z,98.90
2017-12-21T00:33:32.626Z,98.90
2017-12-21T00:36:00.160Z,98.90
2017-12-21T00:38:27.963Z,98.90
2017-12-21T00:40:55.652Z,99.00
2017-12-21T00:43:23.708Z,98.90
2017-12-21T00:46:03.209Z,99.00
2017-12-21T00:48:31.642Z,99.00
2017-12-21T00:50:59.268Z,99.00
2017-12-21T00:53:27.048Z,99.20
2017-12-21T00:55:55.346Z,98.90
2017-12-21T00:58:23.101Z,99.00
2017-12-21T01:00:50.660Z,99.00
2017-12-21T01:03:18.179Z,98.90
2017-12-21T01:05:45.708Z,98.90
2017-12-21T01:08:13.995Z,98.90
2017-12-21T01:10:42.401Z,98.90
2017-12-21T01:13:10.265Z,98.90
2017-12-21T01:15:37.773Z,98.90
2017-12-21T01:18:06.050Z,98.90
2017-12-21T01:20:33.564Z,98.90
2017-12-21T01:23:01.076Z,99.00
2017-12-21T01:25:28.571Z,99.00
2017-12-21T01:27:56.869Z,99.00
2017-12-21T01:30:24.383Z,99.00
2017-12-21T01:32:51.888Z,99.00
2017-12-21T01:35:19.403Z,98.90
2017-12-21T01:37:46.908Z,98.90
2017-12-21T01:40:14.423Z,98.90
2017-12-21T01:42:42.680Z,99.00
2017-12-21T01:45:10.204Z,99.00
2017-12-21T01:47:37.705Z,98.90
2017-12-21T01:50:05.207Z,98.90
2017-12-21T01:52:32.713Z,98.90
2017-12-21T01:55:00.221Z,99.00
2017-12-21T01:57:27.747Z,98.90
2017-12-21T01:59:55.247Z,98.90
2017-12-21T02:02:22.767Z,99.00
2017-12-21T02:04:51.043Z,99.00
2017-12-21T02:07:18.543Z,98.90
2017-12-21T02:09:46.055Z,98.90
2017-12-21T02:12:13.543Z,98.90
2017-12-21T02:14:41.070Z,98.90
2017-12-21T02:17:08.563Z,98.90
2017-12-21T02:19:36.095Z,98.90
2017-12-21T02:22:03.594Z,98.90
2017-12-21T02:24:31.099Z,99.00
2017-12-21T02:26:58.619Z,98.90
2017-12-21T02:29:26.126Z,98.90
2017-12-21T02:31:53.669Z,99.00
2017-12-21T02:34:21.171Z,99.00
2017-12-21T02:36:48.675Z,99.00
2017-12-21T02:39:16.967Z,99.00
2017-12-21T02:41:45.231Z,99.00
2017-12-21T02:44:12.739Z,99.00
2017-12-21T02:46:40.280Z,98.90
2017-12-21T02:49:07.800Z,98.90
2017-12-21T02:51:35.291Z,98.90
2017-12-21T02:54:02.812Z,98.90
2017-12-21T02:56:31.080Z,98.90
2017-12-21T02:58:58.578Z,98.90
2017-12-21T03:01:26.131Z,98.90
2017-12-21T03:03:54.399Z,99.00
2017-12-21T03:06:21.968Z,99.00
2017-12-21T03:08:49.490Z,99.00
2017-12-21T03:11:17.003Z,99.00
2017-12-21T03:13:44.523Z,99.00
2017-12-21T03:16:12.055Z,98.90
2017-12-21T03:18:39.551Z,98.90
2017-12-21T03:21:07.819Z,98.90
2017-12-21T03:23:35.357Z,98.90
2017-12-21T03:26:02.881Z,98.80
2017-12-21T03:28:31.151Z,98.90
2017-12-21T03:30:58.668Z,98.90
2017-12-21T03:33:26.177Z,98.90
2017-12-21T03:35:53.751Z,98.80
2017-12-21T03:38:21.275Z,98.80
2017-12-21T03:40:48.767Z,98.80
2017-12-21T03:43:16.811Z,98.80
2017-12-21T03:45:44.359Z,98.90
2017-12-21T03:48:11.858Z,98.90
2017-12-21T03:50:39.362Z,99.10
2017-12-21T03:53:06.882Z,98.90
2017-12-21T03:55:35.157Z,98.90
2017-12-21T03:58:02.962Z,98.90
2017-12-21T04:00:30.479Z,98.90
2017-12-21T04:02:57.983Z,99.00
2017-12-21T04:05:26.259Z,99.20
2017-12-21T04:07:53.768Z,98.90
2017-12-21T04:10:21.507Z,98.90
2017-12-21T04:12:49.011Z,98.90
2017-12-21T04:15:16.507Z,98.90
2017-12-21T04:17:44.018Z,98.90
2017-12-21T04:20:11.516Z,98.90
2017-12-21T04:22:39.014Z,98.80
2017-12-21T04:25:06.526Z,98.80
2017-12-21T04:27:34.031Z,98.80
2017-12-21T04:30:01.543Z,98.90
2017-12-21T04:32:29.163Z,98.90
2017-12-21T04:34:57.428Z,98.90
2017-12-21T04:37:24.927Z,98.90
2017-12-21T04:39:53.219Z,98.90
2017-12-21T04:42:20.728Z,98.90
2017-12-21T04:44:48.248Z,98.90
2017-12-21T04:47:15.751Z,98.80
2017-12-21T04:49:43.267Z,98.90
2017-12-21T04:52:10.792Z,98.90
2017-12-21T04:54:38.671Z,99.00
2017-12-21T04:57:06.201Z,99.00
2017-12-21T04:59:33.712Z,99.00
2017-12-21T05:02:01.216Z,98.90
2017-12-21T05:04:28.741Z,99.00
2017-12-21T05:06:56.240Z,99.00
2017-12-21T05:09:23.770Z,99.00
2017-12-21T05:11:52.044Z,99.30
2017-12-21T05:14:20.311Z,99.00
2017-12-21T05:16:47.855Z,99.00
2017-12-21T05:19:15.363Z,99.00
2017-12-21T05:21:42.914Z,99.00
2017-12-21T05:24:10.414Z,99.00
2017-12-21T05:26:37.926Z,99.10
2017-12-21T05:29:05.444Z,99.10
2017-12-21T05:31:32.943Z,99.10
2017-12-21T05:34:00.478Z,99.10
2017-12-21T05:36:27.983Z,99.10
2017-12-21T05:38:56.246Z,99.10
2017-12-21T05:41:23.762Z,99.10
2017-12-21T05:43:51.259Z,99.10
2017-12-21T05:46:18.805Z,99.10
2017-12-21T05:48:46.334Z,99.10
2017-12-21T05:51:13.841Z,99.10
2017-12-21T05:53:41.386Z,99.00
2017-12-21T05:56:09.675Z,99.00
2017-12-21T05:58:37.983Z,99.00
2017-12-21T06:01:05.489Z,99.00
2017-12-21T06:03:32.995Z,99.00
2017-12-21T06:06:00.531Z,99.00
2017-12-21T06:08:28.059Z,99.20
2017-12-21T06:10:55.604Z,99.00
2017-12-21T06:13:26.580Z,99.00
2017-12-21T06:15:54.880Z,99.00
2017-12-21T06:18:22.397Z,99.00
2017-12-21T06:20:49.899Z,99.00
2017-12-21T06:23:18.178Z,99.00
2017-12-21T06:25:45.676Z,99.30
2017-12-21T06:28:13.236Z,99.20
2017-12-21T06:30:41.507Z,99.10
2017-12-21T06:33:09.007Z,99.10
2017-12-21T06:35:36.531Z,99.00
2017-12-21T06:38:04.024Z,99.10
2017-12-21T06:40:31.538Z,99.10
2017-12-21T06:42:59.030Z,99.10
2017-12-21T06:45:26.531Z,99.10
2017-12-21T06:47:54.051Z,99.10
2017-12-21T06:50:24.979Z,99.10
2017-12-21T06:52:52.596Z,99.10
2017-12-21T06:55:20.099Z,99.10
2017-12-21T06:57:48.364Z,99.10
2017-12-21T07:00:16.111Z,99.00
2017-12-21T07:02:43.619Z,99.00
2017-12-21T07:05:11.144Z,99.00
2017-12-21T07:07:38.644Z,99.10
2017-12-21T07:10:06.143Z,99.00
2017-12-21T07:12:33.666Z,99.10
2017-12-21T07:15:01.172Z,99.20
2017-12-21T07:17:28.723Z,99.10
2017-12-21T07:19:56.223Z,99.30
2017-12-21T07:22:23.759Z,99.10
2017-12-21T07:24:51.272Z,99.00
2017-12-21T07:27:19.536Z,99.10
2017-12-21T07:29:47.071Z,99.10
2017-12-21T07:32:14.575Z,99.00
2017-12-21T07:34:42.842Z,99.10
2017-12-21T07:37:10.357Z,99.10
2017-12-21T07:39:37.855Z,99.00
2017-12-21T07:42:05.399Z,99.00
2017-12-21T07:44:32.902Z,99.00
2017-12-21T07:47:00.403Z,99.00
2017-12-21T07:49:27.919Z,99.00
2017-12-21T07:51:56.179Z,99.00
2017-12-21T07:54:23.718Z,99.00
2017-12-21T07:56:51.224Z,99.00
2017-12-21T07:59:18.728Z,99.00
2017-12-21T08:01:47.066Z,99.10
2017-12-21T08:04:14.587Z,99.00
2017-12-21T08:06:42.192Z,99.00
2017-12-21T08:09:09.691Z,99.00
2017-12-21T08:11:37.191Z,99.10
2017-12-21T08:14:05.468Z,99.00
2017-12-21T08:16:32.972Z,99.00
2017-12-21T08:19:01.287Z,99.30
2017-12-21T08:21:28.815Z,99.00
2017-12-21T08:23:57.083Z,99.10
2017-12-21T08:26:24.611Z,99.10
2017-12-21T08:28:52.218Z,99.00
2017-12-21T08:31:19.743Z,99.10
2017-12-21T08:33:47.243Z,99.00
2017-12-21T08:36:14.739Z,99.10
2017-12-21T08:38:42.262Z,99.00
2017-12-21T08:41:09.773Z,99.00
2017-12-21T08:43:37.287Z,98.90
2017-12-21T08:46:04.784Z,99.00
2017-12-21T08:48:32.416Z,98.90
2017-12-21T08:50:59.939Z,98.90
2017-12-21T08:53:27.471Z,98.90
2017-12-21T08:55:55.020Z,98.90
2017-12-21T08:58:23.279Z,98.80
2017-12-21T09:00:50.773Z,98.80
2017-12-21T09:03:18.295Z,98.90
2017-12-21T09:05:45.825Z,99.00
2017-12-21T09:08:13.375Z,99.00
2017-12-21T09:10:40.940Z,98.90
2017-12-21T09:13:08.434Z,99.00
2017-12-21T09:15:35.959Z,98.90
2017-12-21T09:18:03.457Z,98.90
2017-12-21T09:20:31.019Z,98.90
2017-12-21T09:22:58.507Z,98.90
2017-12-21T09:25:26.010Z,98.90
2017-12-21T09:27:53.534Z,98.70
2017-12-21T09:30:21.040Z,98.80
2017-12-21T09:32:49.371Z,98.80
2017-12-21T09:35:22.069Z,98.80
2017-12-21T09:37:49.603Z,98.70
2017-12-21T09:40:17.119Z,98.50
2017-12-21T09:42:44.619Z,98.50
2017-12-21T09:45:12.919Z,98.50
2017-12-21T09:47:40.419Z,98.50
2017-12-21T09:50:07.951Z,98.50
2017-12-21T09:52:37.214Z,98.50
2017-12-21T09:55:04.711Z,98.50
2017-12-21T09:57:32.243Z,98.60
2017-12-21T09:59:59.747Z,98.60
2017-12-21T10:02:27.270Z,98.60
2017-12-21T10:04:54.769Z,98.50
2017-12-21T10:07:22.279Z,98.50
2017-12-21T10:09:49.795Z,98.60
2017-12-21T10:12:17.295Z,98.60
2017-12-21T10:14:44.843Z,98.60
2017-12-21T10:17:12.341Z,98.60
2017-12-21T10:19:39.842Z,98.70
2017-12-21T10:22:07.364Z,98.80
2017-12-21T10:24:34.863Z,98.80
2017-12-21T10:27:03.150Z,98.80
2017-12-21T10:29:31.443Z,98.80
2017-12-21T10:31:59.712Z,98.80
2017-12-21T10:34:28.031Z,98.80
2017-12-21T10:36:56.297Z,98.80
2017-12-21T10:39:23.861Z,98.80
2017-12-21T10:41:51.376Z,98.70
2017-12-21T10:44:18.887Z,98.90
2017-12-21T10:46:46.401Z,98.90
2017-12-21T10:49:15.707Z,98.90
2017-12-21T10:51:43.990Z,98.60
2017-12-21T10:54:12.258Z,98.60
2017-12-21T10:56:39.977Z,98.60
2017-12-21T10:59:07.492Z,98.60
2017-12-21T11:01:34.988Z,98.80
2017-12-21T11:04:02.510Z,98.80
2017-12-21T11:06:30.027Z,98.70
2017-12-21T11:08:57.540Z,98.50
2017-12-21T11:11:25.055Z,98.60
2017-12-21T11:13:52.560Z,98.60
2017-12-21T11:16:20.104Z,98.60
2017-12-21T11:18:47.599Z,98.70
2017-12-21T11:21:15.094Z,98.80
2017-12-21T11:23:42.615Z,98.70
2017-12-21T11:26:10.132Z,98.80
2017-12-21T11:28:37.687Z,98.80
2017-12-21T11:31:05.954Z,98.60
2017-12-21T11:33:33.456Z,98.60
2017-12-21T11:36:01.003Z,98.80
2017-12-21T11:38:29.268Z,98.90
2017-12-21T11:40:56.808Z,98.80
2017-12-21T11:43:24.307Z,98.70
2017-12-21T11:45:51.807Z,98.70
2017-12-21T11:48:19.331Z,98.70
2017-12-21T11:50:46.837Z,98.90
2017-12-21T11:53:14.388Z,98.90
2017-12-21T11:55:41.887Z,98.80
2017-12-21T11:58:09.383Z,98.80
2017-12-21T12:00:36.899Z,98.70
2017-12-21T12:03:04.398Z,98.70
2017-12-21T12:05:32.692Z,98.80
2017-12-21T12:08:00.960Z,98.80
2017-12-21T12:10:28.451Z,98.80
2017-12-21T12:12:55.968Z,98.80
2017-12-21T12:15:23.645Z,98.90
2017-12-21T12:17:51.405Z,98.90
2017-12-21T12:20:19.038Z,99.00
2017-12-21T12:22:46.525Z,98.90
2017-12-21T12:25:14.170Z,98.90
2017-12-21T12:27:41.686Z,99.00
2017-12-21T12:30:09.237Z,99.00
2017-12-21T12:32:38.481Z,99.10
2017-12-21T12:35:07.958Z,99.10
2017-12-21T12:37:36.560Z,99.10
2017-12-21T12:40:04.484Z,99.10
2017-12-21T12:42:32.438Z,99.00
2017-12-21T12:45:00.111Z,99.00
2017-12-21T12:47:28.001Z,98.90
2017-12-21T12:49:57.323Z,99.00
2017-12-21T12:52:25.854Z,98.80
2017-12-21T12:54:53.439Z,98.80
2017-12-21T12:57:20.985Z,98.80
2017-12-21T12:59:48.535Z,98.80
2017-12-21T13:02:16.071Z,98.80
2017-12-21T13:04:44.370Z,98.90
2017-12-21T13:07:11.917Z,98.80
2017-12-21T13:09:39.437Z,98.90
2017-12-21T13:12:06.957Z,98.90
2017-12-21T13:14:34.661Z,98.70
2017-12-21T13:17:02.237Z,98.60
2017-12-21T13:19:30.147Z,98.60
2017-12-21T13:21:58.137Z,98.70
2017-12-21T13:24:25.879Z,98.70
2017-12-21T13:26:53.461Z,98.60
2017-12-21T13:29:21.168Z,98.70
2017-12-21T13:31:49.608Z,98.70
2017-12-21T13:34:17.450Z,98.70
2017-12-21T13:36:45.013Z,98.70
2017-12-21T13:39:12.558Z,98.60
2017-12-21T13:41:40.847Z,98.70
2017-12-21T13:44:08.477Z,98.70
2017-12-21T13:46:36.767Z,98.80
2017-12-21T13:49:05.478Z,98.80
2017-12-21T13:51:33.106Z,98.80
2017-12-21T13:54:01.507Z,98.80
2017-12-21T13:56:29.502Z,98.80
2017-12-21T13:58:57.458Z,98.90
2017-12-21T14:01:26.121Z,98.90
2017-12-21T14:03:53.725Z,98.90
2017-12-21T14:06:21.246Z,99.00
2017-12-21T14:08:48.786Z,98.90
2017-12-21T14:11:17.081Z,99.00
2017-12-21T14:13:44.610Z,99.00
2017-12-21T14:16:12.159Z,99.00
2017-12-21T14:18:40.090Z,99.00
2017-12-21T14:21:08.265Z,99.10
2017-12-21T14:23:36.038Z,99.10
2017-12-21T14:26:03.974Z,99.20
2017-12-21T14:28:32.256Z,99.10
2017-12-21T14:31:00.138Z,99.00
2017-12-21T14:33:28.145Z,99.10
2017-12-21T14:35:55.777Z,99.10
2017-12-21T14:38:23.365Z,99.20
2017-12-21T14:40:50.889Z,99.20
2017-12-21T14:43:18.439Z,99.20
2017-12-21T14:45:46.111Z,99.20
2017-12-21T14:48:13.624Z,99.20
2017-12-21T14:50:41.185Z,99.20
2017-12-21T14:53:08.794Z,99.20
2017-12-21T14:55:36.325Z,99.20
2017-12-21T14:58:03.994Z,99.20
2017-12-21T15:00:31.853Z,99.20
2017-12-21T15:03:00.576Z,99.20
2017-12-21T15:05:28.577Z,99.20
2017-12-21T15:07:58.564Z,99.30
2017-12-21T15:10:26.494Z,99.30
2017-12-21T15:12:54.888Z,99.30
2017-12-21T15:15:22.781Z,99.30
2017-12-21T15:17:50.347Z,99.30
2017-12-21T15:20:17.902Z,99.40
2017-12-21T15:22:45.568Z,99.40
2017-12-21T15:25:13.106Z,99.40
2017-12-21T15:27:40.643Z,99.40
2017-12-21T15:30:09.137Z,99.40
2017-12-21T15:32:37.654Z,99.40
2017-12-21T15:35:05.439Z,99.40
2017-12-21T15:37:33.084Z,99.40
2017-12-21T15:40:00.598Z,99.40
2017-12-21T15:42:28.177Z,99.40
2017-12-21T15:44:56.468Z,99.40
2017-12-21T15:47:24.290Z,99.40
2017-12-21T15:49:53.785Z,99.40
2017-12-21T15:52:21.318Z,99.40
2017-12-21T15:54:49.372Z,99.50
2017-12-21T15:57:17.596Z,99.50
2017-12-21T15:59:45.256Z,99.50
2017-12-21T16:02:14.517Z,99.50
2017-12-21T16:04:42.956Z,99.50
2017-12-21T16:07:11.765Z,99.50
2017-12-21T16:09:41.199Z,99.50
2017-12-21T16:12:08.964Z,99.50
2017-12-21T16:14:36.637Z,99.50
2017-12-21T16:17:04.158Z,99.50
2017-12-21T16:19:32.470Z,99.50
2017-12-21T16:22:00.000Z,99.50
2017-12-21T16:24:27.572Z,99.50
2017-12-21T16:26:55.488Z,99.50
2017-12-21T16:29:23.039Z,99.50
2017-12-21T16:31:50.649Z,99.50
2017-12-21T16:34:19.462Z,99.50
2017-12-21T16:36:47.741Z,99.50
2017-12-21T16:39:16.004Z,99.50
2017-12-21T16:41:44.600Z,99.50
2017-12-21T16:44:14.004Z,99.40
2017-12-21T16:46:42.486Z,99.80
2017-12-21T16:49:11.069Z,99.50
2017-12-21T16:51:41.913Z,99.50
2017-12-21T16:54:11.118Z,99.60
2017-12-21T16:56:41.431Z,99.50
2017-12-21T16:59:10.482Z,99.50
2017-12-21T17:01:39.930Z,99.50
2017-12-21T17:04:09.743Z,99.60
2017-12-21T17:06:37.713Z,99.60
2017-12-21T17:09:07.553Z,99.60
2017-12-21T17:11:35.228Z,99.50
2017-12-21T17:14:03.369Z,99.50
2017-12-21T17:16:31.925Z,99.60
2017-12-21T17:18:59.485Z,99.60
2017-12-21T17:21:27.015Z,99.50
2017-12-21T17:23:54.849Z,99.50
2017-12-21T17:26:22.414Z,99.50
2017-12-21T17:28:50.912Z,99.50
2017-12-21T17:31:19.360Z,99.60
2017-12-21T17:33:48.347Z,99.50
2017-12-21T17:36:17.312Z,99.50
2017-12-21T17:38:45.917Z,99.60
2017-12-21T17:41:15.719Z,99.40
2017-12-21T17:43:44.639Z,99.50
2017-12-21T17:46:13.385Z,99.50
2017-12-21T17:48:42.029Z,99.60
2017-12-21T17:51:10.751Z,99.40
2017-12-21T17:53:40.835Z,99.50
2017-12-21T17:56:10.830Z,99.50
2017-12-21T17:58:40.316Z,99.50
2017-12-21T18:01:09.892Z,99.60
2017-12-21T18:03:41.860Z,99.50
2017-12-21T18:06:11.237Z,99.50
2017-12-21T18:08:40.617Z,99.50
2017-12-21T18:11:10.383Z,99.50
2017-12-21T18:13:40.991Z,99.50
2017-12-21T18:16:12.541Z,99.60
2017-12-21T18:18:42.269Z,99.60
2017-12-21T18:21:12.178Z,99.60
2017-12-21T18:23:42.573Z,99.60
2017-12-21T18:26:12.723Z,99.50
2017-12-21T18:28:41.788Z,99.50
2017-12-21T18:31:11.607Z,99.60
2017-12-21T18:33:44.945Z,99.60
2017-12-21T18:36:14.289Z,99.60
2017-12-21T18:38:44.150Z,99.60
2017-12-21T18:41:11.981Z,99.60
2017-12-21T18:43:41.896Z,99.60
2017-12-21T18:46:11.674Z,99.60
2017-12-21T18:48:42.920Z,99.60
2017-12-21T18:51:11.745Z,99.60
2017-12-21T18:53:40.497Z,99.90
2017-12-21T18:56:09.609Z,99.60
2017-12-21T18:58:40.847Z,99.60
2017-12-21T19:01:09.226Z,99.60
2017-12-21T19:03:40.522Z,99.60
2017-12-21T19:06:10.881Z,99.50
2017-12-21T19:08:40.303Z,99.70
2017-12-21T19:11:09.807Z,99.70
2017-12-21T19:13:38.707Z,99.60
2017-12-21T19:16:06.339Z,99.60
2017-12-21T19:18:34.554Z,99.60
2017-12-21T19:21:03.224Z,99.70
2017-12-21T19:23:31.577Z,99.60
2017-12-21T19:25:59.853Z,99.60
2017-12-21T19:28:28.174Z,99.60
2017-12-21T19:30:56.968Z,99.60
2017-12-21T19:33:24.528Z,99.60
2017-12-21T19:35:53.016Z,99.60
2017-12-21T19:38:21.391Z,99.60
2017-12-21T19:40:49.525Z,99.60
2017-12-21T19:43:17.883Z,99.60
2017-12-21T19:45:47.481Z,99.60
2017-12-21T19:48:16.766Z,99.60
2017-12-21T19:50:45.488Z,99.50
2017-12-21T19:53:14.620Z,99.60
2017-12-21T19:55:43.639Z,99.50
2017-12-21T19:58:11.493Z,99.60
2017-12-21T20:00:41.602Z,99.60
2017-12-21T20:03:10.875Z,99.60
2017-12-21T20:05:38.773Z,99.70
2017-12-21T20:08:11.082Z,99.70
2017-12-21T20:10:40.543Z,99.60
2017-12-21T20:13:08.626Z,99.60
2017-12-21T20:15:37.935Z,99.70
2017-12-21T20:18:05.782Z,99.70
2017-12-21T20:20:33.337Z,99.70
2017-12-21T20:23:00.933Z,99.70
2017-12-21T20:25:28.505Z,99.70
2017-12-21T20:27:56.025Z,99.70
2017-12-21T20:30:24.322Z,99.70
2017-12-21T20:32:52.095Z,99.80
2017-12-21T20:35:20.343Z,99.70
2017-12-21T20:37:48.931Z,99.80
2017-12-21T20:40:17.142Z,99.70
2017-12-21T20:42:45.683Z,99.70
2017-12-21T20:45:14.272Z,99.70
2017-12-21T20:47:43.104Z,99.80
2017-12-21T20:50:13.109Z,99.80
2017-12-21T20:52:41.153Z,99.80
2017-12-21T20:55:09.501Z,99.80
2017-12-21T20:57:38.119Z,99.70
2017-12-21T21:00:05.910Z,99.70
2017-12-21T21:02:33.440Z,99.90
2017-12-21T21:05:00.998Z,99.70
2017-12-21T21:07:29.490Z,99.80
2017-12-21T21:09:57.013Z,99.80
2017-12-21T21:12:25.350Z,99.70
2017-12-21T21:14:52.877Z,99.70
2017-12-21T21:17:20.397Z,99.80
2017-12-21T21:19:49.327Z,99.70
2017-12-21T21:22:17.713Z,99.80
2017-12-21T21:24:45.863Z,99.80
2017-12-21T21:27:14.322Z,99.90
2017-12-21T21:29:43.673Z,99.80
2017-12-21T21:32:13.380Z,99.80
2017-12-21T21:34:42.056Z,99.80
2017-12-21T21:37:12.721Z,99.80
2017-12-21T21:39:41.634Z,99.80
2017-12-21T21:42:10.339Z,99.80
2017-12-21T21:44:41.169Z,99.80
2017-12-21T21:47:13.759Z,99.80
2017-12-21T21:49:44.915Z,99.80
2017-12-21T21:52:15.220Z,99.80
2017-12-21T21:54:45.786Z,99.90
2017-12-21T21:57:16.662Z,99.80
2017-12-21T21:59:45.530Z,99.80
2017-12-21T22:02:13.564Z,99.80
2017-12-21T22:04:41.671Z,99.80
2017-12-21T22:07:10.680Z,99.90
2017-12-21T22:09:39.161Z,99.90
2017-12-21T22:12:08.663Z,99.90
2017-12-21T22:14:36.522Z,99.90
2017-12-21T22:17:04.627Z,99.90
2017-12-21T22:19:33.486Z,99.90
2017-12-21T22:22:01.867Z,99.90
2017-12-21T22:24:29.459Z,99.90
2017-12-21T22:26:56.977Z,99.90
2017-12-21T22:29:24.499Z,99.90
2017-12-21T22:31:52.801Z,99.90
2017-12-21T22:34:21.413Z,99.90
2017-12-21T22:36:49.941Z,99.90
2017-12-21T22:39:18.473Z,99.90
2017-12-21T22:41:46.170Z,99.90
2017-12-21T22:44:14.678Z,99.90
2017-12-21T22:46:44.637Z,99.90
2017-12-21T22:49:15.210Z,99.90
2017-12-21T22:51:46.243Z,99.90
2017-12-21T22:54:16.396Z,99.90
2017-12-21T22:56:45.290Z,99.90
2017-12-21T22:59:13.600Z,99.90
2017-12-21T23:01:41.980Z,99.90
2017-12-21T23:04:10.294Z,99.90
2017-12-21T23:06:39.643Z,99.80
2017-12-21T23:09:07.173Z,99.80
2017-12-21T23:11:35.476Z,99.90
2017-12-21T23:14:03.785Z,99.80
2017-12-21T23:16:31.293Z,99.80
2017-12-21T23:18:59.593Z,99.90
2017-12-21T23:21:27.127Z,99.90
2017-12-21T23:23:55.420Z,99.90
2017-12-21T23:26:23.743Z,99.90
2017-12-21T23:28:51.347Z,99.90
2017-12-21T23:31:19.848Z,99.90
2017-12-21T23:33:47.597Z,99.90
2017-12-21T23:36:15.220Z,99.90
2017-12-21T23:38:44.133Z,99.80
2017-12-21T23:41:11.984Z,99.80
2017-12-21T23:43:41.257Z,99.90
2017-12-21T23:46:10.411Z,99.90
2017-12-21T23:48:38.052Z,99.90
2017-12-21T23:51:05.693Z,99.80
2017-12-21T23:53:33.206Z,99.80
2017-12-21T23:56:01.606Z,99.80
2017-12-21T23:58:29.113Z,99.80
